Cedarville, OH (45314)

10:33 PM EST on February 08, 2016 (GMT -0500)
Wolford Road | | Change Station
CLOSE
Current Station
Personal Weather Station
Location: Xenia, OH
Elevation: 1053 ft
Nearby Weather Stations

Elev 1053 ft 39.69 °N, 83.76 °W | Updated 25 seconds ago

Snow
Snow
28.0 °F
Feels Like 18 °F
N
11.2
Wind Variable Wind from NW
Gusts 12.3 mph

Today
High -- | Low -- °F
--% Chance of Precip.
Yesterday
High -- | Low -- °F
Precip. -- in
Pressure 29.67 in
Visibility 2.0 miles
Clouds Few 100 ft
Mostly Cloudy 1100 ft
Overcast 1600 ft
Windchill 18 °F
Dew Point 25 °F
Humidity 88%
Rainfall 0.18 in
Snow Depth Not available.
7:36 AM 6:02 PM
New Moon, 0% visible
SPECI KSGH 090326Z AUTO 25013KT 2SM -SN BR FEW001 BKN011 OVC016 M02/M03 A2967 RMK AO2 BKN V SCT P0000
Pressure 29.67 in
Visibility 2.0 miles
Clouds Few 100 ft
Mostly Cloudy 1100 ft
Overcast 1600 ft
Windchill 18 °F
Dew Point 25 °F
Humidity 88%
Rainfall 0.18 in
Snow Depth Not available.
7:36 AM 6:02 PM
New Moon, 0% visible
SPECI KSGH 090326Z AUTO 25013KT 2SM -SN BR FEW001 BKN011 OVC016 M02/M03 A2967 RMK AO2 BKN V SCT P0000

10-Day Weather Forecast

Almanac

Astronomy

Feb. 08, 2016 Rise Set
Actual Time
Civil Twilight
Nautical Twilight
Astronomical Twilight
Moon
Length of Visible Light
Length of Day
Tomorrow will be .
, % of the Moon is Illuminated

Today's Extremes

State Highs State Lows

Community

WunderPhotos

Upload Photos

1,891,527 photos uploaded!

WunderBlog® & News

Nearby

Air Quality

  Air Quality AQ Index Pollutant
Not available.

Snow Depth

Station Depth Elevation

Earthquake Activity

City Distance Mag. Time & Date
Minimum magnitude displayed is 2.5.

Coastal Water Temperatures

Place Temperature

Stations

Nearby Weather Stations

Station Location Temp. Windchill Dew Point Humidity Wind Precip. Elev Updated Type
                   

Watches & Warnings

There are currently no watches in effect.